Calico Basin, Nevada
Current Conditions -  °F | °C
As of 8:56 AM on Saturday 20 Dec 2014 (Local Time) from KHND Reporting Station
Few Clouds Few Clouds  
Wind Chill: 39°   Ceiling: Unl
Heat Index: 44°   Visibility: 10mi
Dew Point: 39°   Wind: 9mph
Humidity: 82%   Direction: 190°S
Pressure: 30.2"   Gusts: NA
Location:  35.8437°N, 115.134°W
Report Text: KHND 201656Z 19008KT 10SM FEW120 07/04 A3020 RMK AO2 SLP234 T00670039
Loading
Personal Weather Stations






























Interactive Weather Map New forecast layout! Learn more

10-Day Weather Forecast

Advertisements
Track Severe Weather on mobile